Test XHTML 1.0 Strict Page for WU-History Testing
Histórico de la Estación METEOCORUÑA
Diario Datos del Abril 17, 2018 Unidades:  Inglés    Metrico   Ambos
« Prev Dia
Sig Dia »
Diario Semanal Mensual Anual Rango
  Max: Min: Media:
Temp: TemperatureC °F 12.8 °F 17.3 °F
Rocío: DewpointC °F -73.3 °F 7.7 °F
Humedad: Humidity % 55 % 66 %
Vel. viento: WindSpeedKMH mph 0.0 mph 23.9 mph
Racha: WindSpeedGustKMH mph - -
Viento:- - SSE
Presión: PressurehPa in -3386.0 in -
Lluvia: 0.0 in    
Historical Graphs
 
 
Busqueda de Abril 17, 2018
Hora Temp Rocío Presión Viento Vel. viento Racha Humedad Ratio lluvia (/hora) Radiación
TemperatureC °F DewpointC °F PressurehPa in Calm     Humidity % HourlyPrecipMM in SolarRadiationWatts/m^2 W/m2
00:11 12.8 °F -73.3 °F -3386.0 in SE 3.2 mph 20.9 mph 68 % 0.0 in 0 W/m2
00:16 12.8 °F 6.8 °F 1017.8 in SE 6.4 mph 20.9 mph 67 % 0.0 in 0 W/m2
01:21 13.1 °F 7.1 °F 1017.8 in SSE 17.7 mph 35.4 mph 67 % 0.0 in 0 W/m2
01:26 13.1 °F 7.1 °F 1017.5 in SE 16.1 mph 37.0 mph 67 % 0.0 in 0 W/m2
01:56 12.9 °F 7.1 °F 1017.8 in SSE 16.1 mph 35.4 mph 68 % 0.0 in 0 W/m2
02:11 12.8 °F -73.3 °F -3386.0 in SE 9.7 mph 29.0 mph 68 % 0.0 in 0 W/m2
02:16 12.8 °F 7.2 °F -3386.0 in SE 16.1 mph 33.8 mph 69 % 0.0 in 0 W/m2
02:26 12.8 °F -73.3 °F -3386.0 in SSE 4.8 mph 32.2 mph 70 % 0.0 in 0 W/m2
03:26 12.8 °F -73.3 °F -3386.0 in SSE 17.7 mph 33.8 mph 71 % 0.0 in 0 W/m2
03:31 12.8 °F -73.3 °F -3386.0 in SE 6.4 mph 32.2 mph 72 % 0.0 in 0 W/m2
03:36 12.8 °F -73.3 °F -3386.0 in SE 8.0 mph 17.7 mph 72 % 0.0 in 0 W/m2
03:46 13.1 °F 8.2 °F 1017.5 in SE 12.9 mph 30.6 mph 72 % 0.0 in 0 W/m2
03:56 13.3 °F -73.3 °F -3386.0 in South 9.7 mph 33.8 mph 73 % 0.0 in 0 W/m2
04:01 13.3 °F -73.3 °F -3386.0 in South 17.7 mph 40.2 mph 73 % 0.0 in 0 W/m2
04:06 13.4 °F 8.8 °F 1017.5 in SSE 17.7 mph 37.0 mph 74 % 0.0 in 0 W/m2
04:11 13.4 °F 8.8 °F 1017.5 in SSE 17.7 mph 29.0 mph 74 % 0.0 in 0 W/m2
04:16 13.4 °F 8.8 °F 1017.5 in SE 14.5 mph 40.2 mph 74 % 0.0 in 0 W/m2
04:21 13.4 °F 8.8 °F 1017.5 in SSE 14.5 mph 40.2 mph 74 % 0.0 in 0 W/m2
04:26 13.4 °F 8.8 °F 1017.5 in South 16.1 mph 35.4 mph 74 % 0.0 in 0 W/m2
04:31 13.4 °F 8.8 °F 1017.5 in SSE 14.5 mph 29.0 mph 74 % 0.0 in 0 W/m2
04:41 13.4 °F 8.7 °F 1017.2 in SE 14.5 mph 38.6 mph 73 % 0.0 in 0 W/m2
04:46 13.4 °F 8.7 °F 1017.5 in SSE 17.7 mph 46.7 mph 73 % 0.0 in 0 W/m2
04:51 13.5 °F 8.8 °F 1017.2 in SSE 16.1 mph 41.8 mph 73 % 0.0 in 0 W/m2
04:56 13.4 °F 8.7 °F 1017.5 in SSE 17.7 mph 43.4 mph 73 % 0.0 in 0 W/m2
05:06 13.6 °F 8.7 °F 1017.8 in SSE 20.9 mph 41.8 mph 72 % 0.0 in 0 W/m2
05:16 13.5 °F 8.6 °F 1017.8 in SSE 19.3 mph 32.2 mph 72 % 0.0 in 0 W/m2
05:56 13.4 °F 8.4 °F 1017.5 in SSE 19.3 mph 40.2 mph 72 % 0.0 in 0 W/m2
06:01 13.4 °F 8.7 °F 1017.5 in SE 17.7 mph 35.4 mph 73 % 0.0 in 0 W/m2
06:17 13.4 °F 8.9 °F 1017.2 in SSE 38.9 mph 38.9 mph 74 % 0.0 in 0.0 W/m2
06:22 13.4 °F 8.8 °F 1017.5 in SSE 17.7 mph 45.1 mph 74 % 0.0 in 0 W/m2
06:27 13.5 °F 8.9 °F 1017.8 in SSE 19.3 mph 48.3 mph 74 % 0.0 in 0 W/m2
06:32 13.5 °F 8.9 °F 1017.5 in SSE 20.9 mph 40.2 mph 74 % 0.0 in 0 W/m2
06:37 13.5 °F 9.2 °F 1017.8 in SSE 17.7 mph 40.2 mph 75 % 0.0 in 0 W/m2
06:42 13.5 °F 9.2 °F 1017.5 in SE 17.7 mph 37.0 mph 75 % 0.0 in 0 W/m2
06:47 13.6 °F 9.2 °F 1017.8 in SSE 17.7 mph 40.2 mph 75 % 0.0 in 0 W/m2
06:52 13.6 °F 9.2 °F 1017.5 in SSE 16.1 mph 35.4 mph 75 % 0.0 in 0 W/m2
06:57 13.6 °F 9.2 °F 1017.8 in SSE 14.5 mph 33.8 mph 75 % 0.0 in 0 W/m2
07:02 13.6 °F 9.4 °F 1017.8 in SSE 12.9 mph 35.4 mph 76 % 0.0 in 0 W/m2
07:07 13.7 °F 9.6 °F 1017.8 in South 16.1 mph 40.2 mph 76 % 0.0 in 0 W/m2
07:12 13.8 °F 9.7 °F 1018.2 in SE 19.3 mph 32.2 mph 76 % 0.0 in 0 W/m2
08:23 13.9 °F -73.3 °F -3386.0 in SE 30.6 mph 40.2 mph 78 % 0.0 in 40 W/m2
08:48 14.1 °F 10.1 °F 1018.8 in SSE 16.1 mph 24.1 mph 77 % 0.0 in 83 W/m2
08:53 14.2 °F 10.2 °F 1018.5 in South 33.8 mph 33.8 mph 77 % 0.0 in 69.0 W/m2
08:58 14.3 °F 10.3 °F 1018.5 in South 37.0 mph 37.0 mph 77 % 0.0 in 146.0 W/m2
09:03 14.6 °F 10.4 °F 1018.8 in SSE 16.1 mph 38.6 mph 76 % 0.0 in 165 W/m2
09:08 14.6 °F 10.4 °F 1018.8 in South 46.3 mph 46.3 mph 76 % 0.0 in 179.0 W/m2
09:13 14.8 °F 10.6 °F 1018.8 in SSE 29.0 mph 29.0 mph 76 % 0.0 in 158.0 W/m2
09:18 14.8 °F 10.4 °F 1018.8 in SE 16.1 mph 35.4 mph 75 % 0.0 in 207 W/m2
09:23 14.9 °F 10.5 °F 1019.2 in SE 16.1 mph 37.0 mph 75 % 0.0 in 225 W/m2
09:28 14.9 °F 10.3 °F 1018.5 in South 42.6 mph 42.6 mph 74 % 0.0 in 243.0 W/m2
09:33 15.1 °F 10.5 °F 1019.2 in South 17.7 mph 45.1 mph 74 % 0.0 in 255 W/m2
09:38 15.2 °F 10.6 °F 1019.9 in SE 17.7 mph 45.1 mph 74 % 0.0 in 272 W/m2
09:43 15.2 °F 10.6 °F 1018.8 in SE 49.9 mph 49.9 mph 74 % 0.0 in 288.0 W/m2
09:48 15.2 °F 10.6 °F 1019.9 in SSE 19.3 mph 33.8 mph 74 % 0.0 in 257 W/m2
09:53 15.3 °F 10.5 °F 1019.2 in SSE 20.9 mph 35.4 mph 73 % 0.0 in 315 W/m2
09:58 15.4 °F 10.6 °F 1018.8 in SSE 30.6 mph 30.6 mph 73 % 0.0 in 332.0 W/m2
10:03 15.6 °F 10.7 °F 1019.2 in ESE 38.9 mph 38.9 mph 73 % 0.0 in 348.0 W/m2
10:08 15.7 °F 10.8 °F 1018.8 in SSE 41.8 mph 41.8 mph 73 % 0.0 in 362.0 W/m2
10:13 15.8 °F 11.0 °F 1019.2 in ESE 38.9 mph 38.9 mph 73 % 0.0 in 374.0 W/m2
10:18 16.1 °F 11.1 °F 1019.5 in SSE 12.9 mph 27.4 mph 72 % 0.0 in 390 W/m2
10:23 16.0 °F 10.9 °F 1019.2 in SE 35.4 mph 35.4 mph 72 % 0.0 in 399.0 W/m2
10:28 15.9 °F 10.9 °F 1019.5 in SE 48.1 mph 48.1 mph 72 % 0.0 in 418.0 W/m2
10:33 16.0 °F 10.7 °F 1019.2 in SW 53.7 mph 53.7 mph 71 % 0.0 in 431.0 W/m2
10:38 16.1 °F 11.0 °F 1018.8 in SSE 44.4 mph 44.4 mph 72 % 0.0 in 445.0 W/m2
10:43 16.1 °F 10.8 °F 1019.2 in South 37.0 mph 37.0 mph 71 % 0.0 in 461.0 W/m2
10:48 16.3 °F 11.1 °F 1019.2 in SE 40.2 mph 40.2 mph 71 % 0.0 in 473.0 W/m2
10:53 16.4 °F 10.9 °F 1019.2 in SSE 44.4 mph 44.4 mph 70 % 0.0 in 485.0 W/m2
10:58 16.3 °F 10.8 °F 1019.2 in SSE 46.7 mph 46.7 mph 70 % 0.0 in 490.0 W/m2
11:03 16.7 °F 10.9 °F 1019.2 in South 31.5 mph 31.5 mph 69 % 0.0 in 476.0 W/m2
11:08 16.7 °F 11.0 °F 1019.5 in SSE 19.3 mph 37.0 mph 69 % 0.0 in 457 W/m2
11:13 17.1 °F 11.6 °F 1019.2 in SE 40.2 mph 40.2 mph 70 % 0.0 in 436.0 W/m2
11:18 16.9 °F 10.9 °F 1019.9 in South 19.3 mph 49.9 mph 68 % 0.0 in 443 W/m2
11:23 17.1 °F 11.2 °F 1019.5 in SSE 46.3 mph 46.3 mph 68 % 0.0 in 464.0 W/m2
11:28 17.6 °F 11.6 °F 1019.5 in ESE 25.7 mph 25.7 mph 68 % 0.0 in 475.0 W/m2
11:33 17.7 °F 11.2 °F 1019.5 in ESE 35.2 mph 35.2 mph 66 % 0.0 in 534.0 W/m2
11:38 17.8 °F 11.6 °F 1019.9 in SSE 14.5 mph 32.2 mph 67 % 0.0 in 526 W/m2
11:43 17.9 °F 11.7 °F 1019.5 in South 24.1 mph 24.1 mph 67 % 0.0 in 531.0 W/m2
11:48 18.3 °F 11.8 °F 1019.9 in SSE 14.5 mph 37.0 mph 66 % 0.0 in 517 W/m2
11:53 18.3 °F 11.8 °F 1019.5 in South 25.7 mph 25.7 mph 66 % 0.0 in 508.0 W/m2
11:58 18.3 °F 11.6 °F 1019.5 in WSW 33.3 mph 33.3 mph 65 % 0.0 in 527.0 W/m2
12:03 18.4 °F 11.7 °F 1019.9 in South 43.4 mph 43.4 mph 65 % 0.0 in 545.0 W/m2
12:08 18.3 °F 11.6 °F 1019.5 in SSE 38.9 mph 38.9 mph 65 % 0.0 in 596.0 W/m2
12:13 18.3 °F 11.6 °F 1019.5 in South 38.9 mph 38.9 mph 65 % 0.0 in 656.0 W/m2
12:18 18.6 °F 11.9 °F 1019.5 in SSE 27.8 mph 27.8 mph 65 % 0.0 in 715.0 W/m2
12:23 18.8 °F 11.9 °F 1019.5 in South 35.4 mph 35.4 mph 64 % 0.0 in 772.0 W/m2
12:28 19.0 °F 12.1 °F 1019.5 in SE 29.0 mph 29.0 mph 64 % 0.0 in 882.0 W/m2
12:33 19.1 °F 12.1 °F 1019.5 in ESE 31.5 mph 31.5 mph 64 % 0.0 in 793.0 W/m2
12:38 18.9 °F 12.0 °F 1019.5 in South 35.2 mph 35.2 mph 64 % 0.0 in 803.0 W/m2
12:43 19.3 °F 12.1 °F 1019.5 in SE 46.7 mph 46.7 mph 63 % 0.0 in 926.0 W/m2
12:48 18.9 °F 11.7 °F 1019.9 in South 48.3 mph 48.3 mph 63 % 0.0 in 861.0 W/m2
12:53 19.1 °F 12.1 °F 1019.5 in South 38.6 mph 38.6 mph 64 % 0.0 in 838.0 W/m2
12:58 19.3 °F 12.1 °F 1019.9 in SSW 37.0 mph 37.0 mph 63 % 0.0 in 937.0 W/m2
13:03 19.2 °F 12.0 °F 1020.2 in SSE 16.1 mph 37.0 mph 63 % 0.0 in 346 W/m2
13:08 19.2 °F 12.2 °F 1019.5 in SSE 37.0 mph 37.0 mph 64 % 0.0 in 250.0 W/m2
13:13 19.2 °F 12.2 °F 1019.9 in South 17.7 mph 29.0 mph 64 % 0.0 in 292 W/m2
13:18 19.6 °F 12.6 °F 1019.9 in SSE 14.5 mph 30.6 mph 64 % 0.0 in 826 W/m2
13:23 19.8 °F 12.3 °F 1019.5 in SSE 33.8 mph 33.8 mph 62 % 0.0 in 958.0 W/m2
13:28 19.7 °F 12.4 °F 1019.5 in SE 19.3 mph 19.3 mph 63 % 0.0 in 967.0 W/m2
13:33 19.7 °F 12.7 °F 1019.5 in South 24.1 mph 24.1 mph 64 % 0.0 in 891.0 W/m2
13:38 20.1 °F 13.1 °F 1019.5 in SE 18.5 mph 18.5 mph 64 % 0.0 in 311.0 W/m2
13:43 20.1 °F 12.3 °F 1019.9 in SE 33.3 mph 33.3 mph 61 % 0.0 in 951.0 W/m2
13:48 20.1 °F 12.6 °F 1020.5 in SSE 11.3 mph 46.7 mph 62 % 0.0 in 884 W/m2
13:53 19.9 °F 12.2 °F 1020.2 in South 17.7 mph 45.1 mph 61 % 0.0 in 884 W/m2
13:58 19.7 °F 12.0 °F 1019.9 in South 48.1 mph 48.1 mph 61 % 0.0 in 882.0 W/m2
14:03 19.7 °F 12.2 °F 1019.9 in South 54.7 mph 54.7 mph 62 % 0.0 in 886.0 W/m2
14:08 19.8 °F 12.1 °F 1020.5 in SSE 24.1 mph 53.1 mph 61 % 0.0 in 877 W/m2
14:13 20.0 °F 12.2 °F 1019.9 in South 35.2 mph 35.2 mph 61 % 0.0 in 830.0 W/m2
14:18 20.1 °F 12.3 °F 1019.9 in South 54.7 mph 54.7 mph 61 % 0.0 in 821.0 W/m2
14:23 20.3 °F 12.3 °F 1019.5 in South 40.2 mph 40.2 mph 60 % 0.0 in 821.0 W/m2
14:28 20.4 °F 11.9 °F 1019.9 in SSE 40.2 mph 40.2 mph 58 % 0.0 in 679.0 W/m2
14:33 20.6 °F 12.5 °F 1019.9 in SSW 33.3 mph 33.3 mph 60 % 0.0 in 715.0 W/m2
14:38 20.7 °F 12.1 °F 1019.9 in SE 37.0 mph 37.0 mph 58 % 0.0 in 694.0 W/m2
14:43 20.7 °F 12.4 °F 1019.5 in SSW 25.9 mph 25.9 mph 59 % 0.0 in 701.0 W/m2
14:48 20.6 °F 12.1 °F 1019.9 in SSE 27.8 mph 27.8 mph 58 % 0.0 in 756.0 W/m2
14:53 20.4 °F 11.6 °F 1019.9 in SSE 45.1 mph 45.1 mph 57 % 0.0 in 823.0 W/m2
14:58 20.7 °F 12.1 °F 1019.9 in South 46.7 mph 46.7 mph 58 % 0.0 in 838.0 W/m2
15:03 20.6 °F 12.0 °F 1020.2 in SSW 48.1 mph 48.1 mph 58 % 0.0 in 942.0 W/m2
15:08 20.6 °F 12.1 °F 1019.9 in SE 35.4 mph 35.4 mph 58 % 0.0 in 789.0 W/m2
15:13 20.7 °F 12.2 °F 1019.9 in SE 37.0 mph 37.0 mph 58 % 0.0 in 279.0 W/m2
15:18 20.6 °F 12.3 °F 1019.9 in South 32.2 mph 32.2 mph 59 % 0.0 in 279.0 W/m2
15:23 20.7 °F 11.9 °F 1020.2 in South 17.7 mph 37.0 mph 57 % 0.0 in 951 W/m2
15:28 20.7 °F 12.2 °F 1019.9 in SSE 31.5 mph 31.5 mph 58 % 0.0 in 294.0 W/m2
15:33 21.1 °F 12.3 °F 1019.9 in South 32.2 mph 32.2 mph 57 % 0.0 in 905.0 W/m2
15:38 21.1 °F 12.3 °F 1019.9 in South 48.3 mph 48.3 mph 57 % 0.0 in 956.0 W/m2
15:43 20.8 °F 12.0 °F 1019.9 in SSW 44.4 mph 44.4 mph 57 % 0.0 in 861.0 W/m2
15:48 20.7 °F 12.4 °F 1020.2 in South 20.9 mph 37.0 mph 59 % 0.0 in 473 W/m2
15:53 20.7 °F 12.1 °F 1019.9 in SSW 31.5 mph 31.5 mph 58 % 0.0 in 311.0 W/m2
15:58 20.7 °F 12.2 °F 1020.2 in South 32.2 mph 32.2 mph 58 % 0.0 in 578.0 W/m2
16:03 20.6 °F 12.3 °F 1020.2 in South 35.4 mph 35.4 mph 59 % 0.0 in 301.0 W/m2
16:08 20.3 °F 12.1 °F 1020.2 in SSE 32.2 mph 32.2 mph 59 % 0.0 in 287.0 W/m2
16:13 20.3 °F 12.0 °F 1020.5 in SSE 20.9 mph 37.0 mph 59 % 0.0 in 290 W/m2
16:18 20.5 °F 12.2 °F 1020.2 in SSW 33.8 mph 33.8 mph 59 % 0.0 in 230.0 W/m2
16:23 20.2 °F 11.9 °F 1020.2 in SSE 31.5 mph 31.5 mph 59 % 0.0 in 232.0 W/m2
16:28 20.2 °F 12.2 °F 1020.2 in South 44.4 mph 44.4 mph 60 % 0.0 in 229.0 W/m2
16:33 20.1 °F 11.6 °F 1020.5 in South 48.1 mph 48.1 mph 58 % 0.0 in 223.0 W/m2
16:38 20.2 °F 11.9 °F 1020.2 in South 35.4 mph 35.4 mph 59 % 0.0 in 271.0 W/m2
16:43 20.4 °F 12.1 °F 1020.2 in SSE 29.0 mph 29.0 mph 59 % 0.0 in 805.0 W/m2
16:48 20.4 °F 11.8 °F 1020.2 in South 40.7 mph 40.7 mph 58 % 0.0 in 197.0 W/m2
16:53 20.3 °F 11.7 °F 1020.5 in South 43.4 mph 43.4 mph 58 % 0.0 in 227.0 W/m2
16:58 20.3 °F 11.7 °F 1020.2 in SSE 38.9 mph 38.9 mph 58 % 0.0 in 237.0 W/m2
17:03 20.5 °F 11.9 °F 1020.5 in SSE 37.0 mph 37.0 mph 58 % 0.0 in 200.0 W/m2
17:08 20.4 °F 11.1 °F 1020.5 in South 45.1 mph 45.1 mph 55 % 0.0 in 214.0 W/m2
17:13 20.3 °F 11.6 °F 1020.5 in South 37.0 mph 37.0 mph 57 % 0.0 in 788.0 W/m2
17:18 20.4 °F 11.1 °F 1020.9 in South 22.5 mph 40.2 mph 55 % 0.0 in 752 W/m2
17:23 20.4 °F 11.4 °F 1020.5 in South 35.2 mph 35.2 mph 56 % 0.0 in 777.0 W/m2
17:28 20.5 °F 11.7 °F 1020.5 in SE 40.7 mph 40.7 mph 57 % 0.0 in 272.0 W/m2
17:33 20.5 °F 11.7 °F 1020.5 in SSE 37.0 mph 37.0 mph 57 % 0.0 in 214.0 W/m2
17:38 20.3 °F 11.6 °F 1020.5 in South 29.6 mph 29.6 mph 57 % 0.0 in 694.0 W/m2
17:43 20.4 °F 11.6 °F 1020.5 in SSW 38.9 mph 38.9 mph 57 % 0.0 in 679.0 W/m2
17:48 20.3 °F 11.6 °F 1020.2 in SSE 25.9 mph 25.9 mph 57 % 0.0 in 190.0 W/m2
17:53 20.2 °F 11.4 °F 1020.9 in SSE 17.7 mph 49.9 mph 57 % 0.0 in 209 W/m2
17:58 20.1 °F 11.6 °F 1020.9 in SSE 40.7 mph 40.7 mph 58 % 0.0 in 605.0 W/m2
18:03 20.3 °F 11.7 °F 1020.9 in South 32.2 mph 32.2 mph 58 % 0.0 in 524.0 W/m2
18:08 20.1 °F 11.8 °F 1020.9 in SSE 31.5 mph 31.5 mph 59 % 0.0 in 153.0 W/m2
18:13 20.1 °F 12.1 °F 1020.5 in South 29.6 mph 29.6 mph 60 % 0.0 in 211.0 W/m2
18:18 20.1 °F 12.1 °F 1020.9 in SSW 13.0 mph 13.0 mph 60 % 0.0 in 501.0 W/m2
18:23 20.1 °F 11.8 °F 1020.5 in South 24.1 mph 24.1 mph 59 % 0.0 in 135.0 W/m2
18:28 19.8 °F 11.8 °F 1020.9 in SSE 12.9 mph 33.8 mph 60 % 0.0 in 162 W/m2
18:33 19.7 °F 12.0 °F 1020.9 in South 35.4 mph 35.4 mph 61 % 0.0 in 513.0 W/m2
18:38 19.7 °F 11.9 °F 1020.9 in SSE 38.9 mph 38.9 mph 61 % 0.0 in 121.0 W/m2
18:43 19.7 °F 12.2 °F 1020.9 in SSE 30.6 mph 30.6 mph 62 % 0.0 in 445.0 W/m2
18:48 19.8 °F 12.1 °F 1021.2 in SSE 17.7 mph 43.4 mph 61 % 0.0 in 95 W/m2
18:53 19.6 °F 11.9 °F 1020.9 in SE 30.6 mph 30.6 mph 61 % 0.0 in 91.0 W/m2
18:58 19.6 °F 12.1 °F 1020.9 in SSE 20.4 mph 20.4 mph 62 % 0.0 in 79.0 W/m2
19:03 19.6 °F 12.1 °F 1020.9 in SSE 27.4 mph 27.4 mph 62 % 0.0 in 213.0 W/m2
19:08 19.4 °F 11.9 °F 1020.9 in SSE 22.5 mph 22.5 mph 62 % 0.0 in 107.0 W/m2
19:13 19.4 °F 11.9 °F 1021.2 in SSE 14.5 mph 30.6 mph 62 % 0.0 in 278 W/m2
19:18 19.3 °F 11.8 °F 1021.2 in South 14.5 mph 27.4 mph 62 % 0.0 in 127 W/m2
19:22 19.3 °F 11.8 °F 1021.2 in SSE 12.9 mph 29.0 mph 62 % 0.0 in 290 W/m2
19:27 19.3 °F 11.8 °F 1021.2 in South 16.1 mph 33.8 mph 62 % 0.0 in 272 W/m2
19:32 19.5 °F 12.0 °F 1021.2 in South 16.1 mph 22.5 mph 62 % 0.0 in 258 W/m2
19:37 19.4 °F 11.9 °F 1021.2 in South 14.5 mph 32.2 mph 62 % 0.0 in 241 W/m2
19:42 19.3 °F 11.8 °F 1021.2 in South 17.7 mph 30.6 mph 62 % 0.0 in 221 W/m2
19:47 19.3 °F 11.8 °F 1021.2 in South 19.3 mph 27.4 mph 62 % 0.0 in 202 W/m2
19:52 19.3 °F 11.8 °F 1021.2 in SSE 16.1 mph 38.6 mph 62 % 0.0 in 186 W/m2
19:57 19.1 °F 11.9 °F 1021.2 in SSE 17.7 mph 32.2 mph 63 % 0.0 in 169 W/m2
20:02 19.1 °F 11.7 °F 1021.2 in SSE 19.3 mph 33.8 mph 62 % 0.0 in 151 W/m2
20:07 19.2 °F 11.7 °F 1021.2 in SSE 16.1 mph 16.1 mph 62 % 0.0 in 135 W/m2
20:12 19.2 °F 11.7 °F 1021.2 in South 12.9 mph 20.9 mph 62 % 0.0 in 116 W/m2
20:17 19.1 °F 11.9 °F 1021.2 in South 11.3 mph 22.5 mph 63 % 0.0 in 102 W/m2
20:22 19.1 °F 11.4 °F 1021.2 in SSE 11.3 mph 29.0 mph 61 % 0.0 in 86 W/m2
20:27 19.0 °F 11.8 °F 1021.2 in SSE 9.7 mph 17.7 mph 63 % 0.0 in 72 W/m2
20:32 18.9 °F 11.7 °F 1021.2 in SSE 8.0 mph 24.1 mph 63 % 0.0 in 62 W/m2
20:37 18.7 °F 11.8 °F 1020.9 in South 7.4 mph 7.4 mph 64 % 0.0 in 40.0 W/m2
20:42 18.6 °F 11.7 °F 1021.2 in South 8.0 mph 19.3 mph 64 % 0.0 in 33 W/m2
20:47 18.4 °F 11.4 °F 1020.9 in SSE 33.3 mph 33.3 mph 64 % 0.0 in 30.0 W/m2
20:52 18.3 °F 11.6 °F 1021.2 in South 12.9 mph 19.3 mph 65 % 0.0 in 21 W/m2
20:57 18.1 °F 11.6 °F 1021.2 in South 30.6 mph 30.6 mph 66 % 0.0 in 18.0 W/m2
21:07 18.1 °F 11.2 °F 1020.9 in SSE 27.8 mph 27.8 mph 64 % 0.0 in 11.0 W/m2
21:12 18.0 °F 11.3 °F 1021.2 in SE 25.7 mph 25.7 mph 65 % 0.0 in 7.0 W/m2
21:17 17.9 °F 11.0 °F 1021.6 in SSE 12.9 mph 27.4 mph 64 % 0.0 in 0 W/m2
21:22 17.9 °F 11.2 °F 1021.6 in SSE 14.5 mph 25.7 mph 65 % 0.0 in 0 W/m2
21:27 17.8 °F 11.1 °F 1021.2 in South 22.5 mph 22.5 mph 65 % 0.0 in 0.0 W/m2
21:32 17.7 °F 11.2 °F 1021.2 in SSE 25.9 mph 25.9 mph 66 % 0.0 in 0.0 W/m2
21:37 17.6 °F 11.2 °F 1021.6 in SSE 11.3 mph 25.7 mph 66 % 0.0 in 0 W/m2
21:42 17.4 °F 11.2 °F 1021.2 in SSE 14.8 mph 14.8 mph 67 % 0.0 in 0.0 W/m2
21:47 17.3 °F 11.3 °F 1021.2 in SSE 11.3 mph 11.3 mph 68 % 0.0 in 0.0 W/m2
21:52 17.1 °F 11.2 °F 1021.9 in SSE 8.0 mph 9.7 mph 68 % 0.0 in 0 W/m2
21:57 17.0 °F 11.1 °F 1021.6 in SSE 11.1 mph 11.1 mph 68 % 0.0 in 0.0 W/m2
22:03 16.9 °F 11.2 °F 1021.9 in SSE 4.8 mph 11.3 mph 69 % 0.0 in 0 W/m2
22:08 16.8 °F 11.1 °F 1021.9 in SSE 4.8 mph 6.4 mph 69 % 0.0 in 0 W/m2
22:13 16.7 °F 11.0 °F 1021.9 in SE 3.2 mph 9.7 mph 69 % 0.0 in 0 W/m2
22:18 16.8 °F 11.1 °F 1022.2 in SSE 4.8 mph 8.0 mph 69 % 0.0 in 0 W/m2
22:23 16.8 °F 11.1 °F 1022.2 in South 4.8 mph 9.7 mph 69 % 0.0 in 0 W/m2
22:28 16.7 °F 11.2 °F 1022.2 in South 6.4 mph 9.7 mph 70 % 0.0 in 0 W/m2
22:33 16.6 °F 11.1 °F 1022.2 in South 4.8 mph 8.0 mph 70 % 0.0 in 0 W/m2
22:38 16.5 °F 11.0 °F 1022.2 in South 3.2 mph 3.2 mph 70 % 0.0 in 0 W/m2
22:43 16.4 °F 10.9 °F 1022.2 in South 1.6 mph 1.6 mph 70 % 0.0 in 0 W/m2
22:48 16.3 °F 11.1 °F 1022.2 in Calm   4.8 mph 71 % 0.0 in 0 W/m2
22:53 16.2 °F 10.9 °F 1022.2 in SSE 1.6 mph 9.7 mph 71 % 0.0 in 0 W/m2
22:58 16.1 °F 11.1 °F 1022.2 in SSE 1.6 mph 9.7 mph 72 % 0.0 in 0 W/m2
23:03 15.9 °F 10.8 °F 1022.2 in SSE 3.2 mph 12.9 mph 72 % 0.0 in 0 W/m2
23:08 15.7 °F 10.9 °F 1022.2 in SSE 4.8 mph 11.3 mph 73 % 0.0 in 0 W/m2
23:13 15.6 °F 11.0 °F 1022.2 in SE 6.4 mph 14.5 mph 74 % 0.0 in 0 W/m2
23:18 15.3 °F 10.7 °F 1022.2 in SE 8.0 mph 16.1 mph 74 % 0.0 in 0 W/m2
23:23 15.2 °F 10.8 °F 1022.6 in SE 8.0 mph 16.1 mph 75 % 0.0 in 0 W/m2
23:28 15.1 °F 10.7 °F 1022.2 in SSE 8.0 mph 12.9 mph 75 % 0.0 in 0 W/m2
23:33 14.9 °F 10.5 °F 1022.2 in SE 6.4 mph 16.1 mph 75 % 0.0 in 0 W/m2
23:38 14.8 °F 10.6 °F 1022.6 in SE 8.0 mph 16.1 mph 76 % 0.0 in 0 W/m2
23:43 14.7 °F 10.5 °F 1022.2 in SSE 8.0 mph 11.3 mph 76 % 0.0 in 0 W/m2
23:48 14.7 °F 10.5 °F 1022.2 in ESE 4.8 mph 12.9 mph 76 % 0.0 in 0 W/m2
23:53 14.7 °F 10.7 °F 1022.2 in SE 4.8 mph 11.3 mph 77 % 0.0 in 0 W/m2
23:58 14.6 °F 10.6 °F 1022.2 in SE 4.8 mph 12.9 mph 77 % 0.0 in 0 W/m2
Meteocoruña
Agradecimientos a Weather Underground - 3 mb